Time;durP1;ratioP1;P1;durP2;ratioP2;P2;SDS_P1;SDS_P2;PMS_P1;PMS_P2;Temp;Humidity;BMP_temperature;BMP_pressure;BME280_temperature;BME280_humidity;BME280_pressure;Samples;Min_cycle;Max_cycle;Signal;HPM_P1;HPM_P2
2021/05/08 00:02:16;;;;;;;7.00;1.98;;;;;;;12.60;45.98;100111.16;5033339;28;20108;-88
2021/05/08 00:04:42;;;;;;;6.75;1.80;;;;;;;12.65;45.87;100100.25;5042254;28;20497;-87
2021/05/08 00:07:07;;;;;;;8.05;1.85;;;;;;;12.77;45.74;100101.03;5051882;28;20122;-87
2021/05/08 00:09:32;;;;;;;2.83;1.27;;;;;;;12.35;46.93;100106.22;5053071;28;20036;-87
2021/05/08 00:11:58;;;;;;;6.20;1.63;;;;;;;12.41;47.50;100096.00;5053208;28;20033;-87
2021/05/08 00:14:25;;;;;;;8.00;1.98;;;;;;;12.40;47.70;100091.72;5052653;28;20024;-87
2021/05/08 00:16:51;;;;;;;9.32;2.13;;;;;;;12.23;47.71;100079.06;5042900;28;20068;-87
2021/05/08 00:19:16;;;;;;;6.07;1.23;;;;;;;12.48;47.37;100078.75;5032940;28;20076;-87
2021/05/08 00:21:42;;;;;;;5.20;1.40;;;;;;;12.42;47.39;100068.72;5032537;28;20021;-89
2021/05/08 00:24:09;;;;;;;4.88;1.40;;;;;;;12.36;47.61;100058.69;5032851;28;20548;-86
2021/05/08 00:26:35;;;;;;;9.68;2.05;;;;;;;12.40;47.50;100056.63;5032864;28;20025;-87
2021/05/08 00:29:00;;;;;;;5.63;1.70;;;;;;;12.27;47.63;100048.91;5032830;28;20390;-87
2021/05/08 00:31:26;;;;;;;6.63;1.40;;;;;;;12.42;47.63;100045.03;5032759;28;20029;-86
2021/05/08 00:33:52;;;;;;;6.88;1.98;;;;;;;12.44;47.41;100039.63;5032796;28;20038;-87
2021/05/08 00:36:17;;;;;;;4.00;1.63;;;;;;;12.21;47.23;100029.19;5032753;28;20032;-87
2021/05/08 00:38:43;;;;;;;5.32;1.73;;;;;;;12.35;47.72;100027.22;5032553;28;20030;-87
2021/05/08 00:41:08;;;;;;;3.83;1.30;;;;;;;12.25;47.84;100022.69;5032479;28;20108;-87
2021/05/08 00:43:34;;;;;;;5.18;1.90;;;;;;;12.30;48.20;100014.41;5032533;28;20382;-87
2021/05/08 00:45:59;;;;;;;6.22;1.52;;;;;;;12.20;49.27;100011.69;5032738;28;20451;-87
2021/05/08 00:48:28;;;;;;;4.72;2.15;;;;;;;12.27;50.16;100001.53;5034526;28;20383;-88
2021/05/08 00:50:54;;;;;;;5.90;1.70;;;;;;;12.08;50.09;99994.28;5031978;28;20475;-87
2021/05/08 00:53:21;;;;;;;5.50;1.77;;;;;;;12.09;52.92;99990.69;5032385;28;20053;-87
2021/05/08 00:55:46;;;;;;;5.43;1.65;;;;;;;11.97;53.04;99978.53;5032190;28;20021;-87
2021/05/08 00:58:11;;;;;;;2.88;1.70;;;;;;;11.94;53.26;99982.22;5032335;28;20100;-87
2021/05/08 01:00:38;;;;;;;8.10;1.75;;;;;;;11.93;53.20;99977.09;5032016;28;20044;-87
2021/05/08 01:03:07;;;;;;;7.97;2.00;;;;;;;11.93;52.89;99961.28;5032090;28;20483;-86
2021/05/08 01:05:33;;;;;;;5.22;2.20;;;;;;;11.88;53.27;99973.00;5032494;28;20052;-87
2021/05/08 01:08:00;;;;;;;6.45;2.08;;;;;;;11.78;54.19;99961.53;5031940;28;20410;-87
2021/05/08 01:10:27;;;;;;;8.07;2.20;;;;;;;11.70;54.22;99961.31;5031719;28;20380;-87
2021/05/08 01:12:53;;;;;;;5.00;1.65;;;;;;;11.65;54.37;99958.22;5033584;28;20131;-85
2021/05/08 01:15:20;;;;;;;7.95;1.98;;;;;;;11.73;55.39;99952.34;5031880;28;20187;-87
2021/05/08 01:17:45;;;;;;;6.97;1.73;;;;;;;11.60;56.27;99939.34;5030926;28;20034;-87
2021/05/08 01:20:12;;;;;;;6.32;2.20;;;;;;;11.61;57.98;99935.75;5014017;28;20026;-87
2021/05/08 01:22:38;;;;;;;7.75;1.92;;;;;;;11.28;58.86;99924.34;5031523;28;20033;-87
2021/05/08 01:25:07;;;;;;;7.20;2.45;;;;;;;11.48;60.02;99920.97;5031840;28;20025;-87
2021/05/08 01:27:33;;;;;;;6.30;2.05;;;;;;;11.22;60.58;99923.03;5031884;28;20026;-87
2021/05/08 01:29:58;;;;;;;5.05;1.67;;;;;;;11.25;61.18;99904.38;5031930;28;20025;-86
2021/05/08 01:32:23;;;;;;;4.60;1.60;;;;;;;11.08;61.72;99923.28;5032540;28;20030;-87
2021/05/08 01:34:49;;;;;;;5.57;2.20;;;;;;;11.17;62.76;99908.56;5018121;28;20060;-87
2021/05/08 01:37:14;;;;;;;6.43;1.98;;;;;;;11.18;63.17;99889.25;5035817;28;20252;-87
2021/05/08 01:39:39;;;;;;;11.23;2.50;;;;;;;11.22;63.80;99894.13;5035593;28;20045;-87
2021/05/08 01:42:05;;;;;;;4.32;1.70;;;;;;;11.19;64.36;99893.53;5035686;28;20079;-87
2021/05/08 01:44:30;;;;;;;6.13;2.03;;;;;;;10.95;66.44;99889.22;5035576;28;20029;-87
2021/05/08 01:46:56;;;;;;;8.52;2.38;;;;;;;11.23;65.67;99881.81;5034891;28;20512;-87
2021/05/08 01:49:21;;;;;;;7.00;2.20;;;;;;;10.84;67.72;99883.97;5035663;28;20041;-86
2021/05/08 01:51:47;;;;;;;6.03;2.40;;;;;;;10.73;69.20;99876.09;5035471;28;20040;-86
2021/05/08 01:54:16;;;;;;;6.63;2.42;;;;;;;10.89;70.12;99872.16;5035418;28;20084;-86
2021/05/08 01:56:43;;;;;;;8.15;2.10;;;;;;;10.91;71.12;99870.25;5035597;28;20013;-86
2021/05/08 01:59:09;;;;;;;5.35;2.45;;;;;;;10.95;70.27;99865.59;5035359;28;20360;-85
2021/05/08 02:01:35;;;;;;;5.72;2.20;;;;;;;10.70;72.20;99864.03;5035638;28;20109;-86
2021/05/08 02:04:00;;;;;;;6.00;2.92;;;;;;;10.73;72.59;99850.66;5035500;28;20039;-86
2021/05/08 02:06:25;;;;;;;9.15;3.22;;;;;;;10.48;73.58;99842.03;5035658;28;20025;-85
2021/05/08 02:08:51;;;;;;;4.85;2.50;;;;;;;10.40;74.41;99840.97;5035585;28;20013;-85
2021/05/08 02:11:16;;;;;;;6.72;3.03;;;;;;;10.63;73.55;99832.16;5035461;28;20436;-85
2021/05/08 02:13:41;;;;;;;9.70;2.88;;;;;;;10.38;75.72;99824.50;5035584;28;20033;-85
2021/05/08 02:16:07;;;;;;;9.60;3.22;;;;;;;10.43;76.65;99817.13;5035132;28;20060;-84
2021/05/08 02:18:32;;;;;;;7.63;2.60;;;;;;;10.33;77.34;99817.00;5035227;28;20046;-84
2021/05/08 02:20:58;;;;;;;6.97;2.80;;;;;;;10.48;77.55;99814.97;5035050;28;20025;-84
2021/05/08 02:23:23;;;;;;;8.57;2.90;;;;;;;10.45;78.12;99810.78;5035352;28;20025;-84
2021/05/08 02:25:49;;;;;;;10.38;3.30;;;;;;;10.54;77.76;99793.50;5034782;28;20356;-84
2021/05/08 02:28:14;;;;;;;8.60;2.92;;;;;;;10.48;78.03;99778.22;5034947;28;20310;-85
2021/05/08 02:30:42;;;;;;;9.10;2.75;;;;;;;10.58;78.62;99776.53;5034961;28;20037;-85
2021/05/08 02:33:08;;;;;;;6.45;3.05;;;;;;;10.61;78.89;99759.75;5035157;28;20050;-84
2021/05/08 02:35:34;;;;;;;6.40;2.97;;;;;;;10.27;79.97;99749.22;5034434;28;20103;-84
2021/05/08 02:38:00;;;;;;;10.93;3.45;;;;;;;10.36;80.23;99731.94;5034854;28;20029;-84
2021/05/08 02:40:28;;;;;;;8.35;3.22;;;;;;;10.26;80.96;99716.88;5034805;28;20026;-84
2021/05/08 02:42:53;;;;;;;9.30;2.90;;;;;;;10.36;81.33;99708.31;5034311;28;20025;-84
2021/05/08 02:45:19;;;;;;;8.57;3.30;;;;;;;10.32;81.10;99702.47;5034767;28;20029;-85
2021/05/08 02:47:48;;;;;;;7.97;3.58;;;;;;;10.33;81.42;99691.03;5034448;28;20450;-84
2021/05/08 02:50:15;;;;;;;6.53;3.38;;;;;;;10.30;81.34;99680.78;5034537;28;20052;-84
2021/05/08 02:52:40;;;;;;;8.10;3.47;;;;;;;10.36;82.10;99667.16;5034402;28;20475;-84
2021/05/08 02:55:07;;;;;;;10.88;3.78;;;;;;;10.12;83.67;99662.03;5034563;28;20034;-84
2021/05/08 02:57:34;;;;;;;7.20;3.53;;;;;;;10.22;83.20;99649.84;5034362;28;20026;-84
2021/05/08 02:59:59;;;;;;;6.72;3.88;;;;;;;10.10;84.76;99648.19;5034418;28;20033;-84
2021/05/08 03:02:24;;;;;;;7.30;3.90;;;;;;;10.11;83.93;99636.72;5033851;28;20112;-84
2021/05/08 03:04:50;;;;;;;11.70;4.07;;;;;;;10.02;85.02;99637.47;5034286;28;20029;-84
2021/05/08 03:07:15;;;;;;;12.43;3.72;;;;;;;10.33;83.94;99628.06;5034344;28;20022;-84
2021/05/08 03:09:42;;;;;;;7.97;4.50;;;;;;;10.08;84.98;99616.84;5033992;28;20033;-84
2021/05/08 03:12:08;;;;;;;9.45;4.32;;;;;;;10.19;85.34;99610.75;5034056;28;20029;-84
2021/05/08 03:14:33;;;;;;;8.07;4.80;;;;;;;10.24;85.32;99608.59;5034103;28;20101;-85
2021/05/08 03:16:59;;;;;;;13.98;5.22;;;;;;;10.35;84.97;99604.31;5034041;28;20021;-85
2021/05/08 03:19:24;;;;;;;6.93;4.53;;;;;;;10.37;85.37;99602.38;5033985;28;20249;-85
2021/05/08 03:21:50;;;;;;;8.80;4.82;;;;;;;10.41;85.59;99598.59;5016284;28;20022;-85
2021/05/08 03:24:16;;;;;;;6.90;4.63;;;;;;;10.46;85.68;99596.41;5033877;28;20071;-85
2021/05/08 03:26:41;;;;;;;10.45;5.28;;;;;;;10.54;85.52;99582.66;5033840;28;20037;-85
2021/05/08 03:29:07;;;;;;;10.30;5.15;;;;;;;10.67;84.89;99571.06;5033759;28;20021;-85
2021/05/08 03:31:33;;;;;;;10.07;5.40;;;;;;;10.75;85.03;99569.59;5033586;28;20033;-85
2021/05/08 03:33:59;;;;;;;8.68;5.50;;;;;;;10.80;85.27;99557.75;5033799;28;20025;-84
2021/05/08 03:36:25;;;;;;;11.63;6.03;;;;;;;10.71;85.95;99556.72;5033694;28;20036;-85
2021/05/08 03:38:50;;;;;;;11.07;5.45;;;;;;;10.86;85.22;99551.16;5033394;28;20398;-85
2021/05/08 03:41:16;;;;;;;12.18;5.78;;;;;;;10.62;86.46;99530.38;5033456;28;20021;-85
2021/05/08 03:43:41;;;;;;;9.82;6.15;;;;;;;10.69;87.19;99531.56;5034027;28;20025;-84
2021/05/08 03:46:06;;;;;;;11.05;6.40;;;;;;;10.66;86.91;99518.66;5033751;28;20505;-85
2021/05/08 03:48:32;;;;;;;10.88;6.80;;;;;;;10.89;86.19;99512.34;5033157;28;20065;-84
2021/05/08 03:50:57;;;;;;;7.70;5.72;;;;;;;10.83;86.51;99498.91;5033324;28;20061;-84
2021/05/08 03:53:24;;;;;;;10.43;5.47;;;;;;;10.71;87.31;99496.31;5033328;28;20021;-84
2021/05/08 03:55:51;;;;;;;7.65;5.90;;;;;;;10.88;87.04;99489.69;5032660;28;20028;-85
2021/05/08 03:58:20;;;;;;;9.45;6.53;;;;;;;10.90;87.17;99477.25;5033311;28;20021;-84
2021/05/08 04:00:45;;;;;;;11.63;7.10;;;;;;;10.80;88.58;99473.75;5033108;28;20163;-85
2021/05/08 04:03:11;;;;;;;21.88;6.47;;;;;;;11.04;87.13;99476.09;5033251;28;20438;-85
2021/05/08 04:05:36;;;;;;;8.95;5.90;;;;;;;11.03;87.68;99469.16;5015293;28;20030;-84
2021/05/08 04:08:01;;;;;;;9.82;6.15;;;;;;;10.96;88.56;99448.78;5033094;28;20035;-84
2021/05/08 04:10:27;;;;;;;8.50;5.20;;;;;;;11.04;87.78;99435.84;5032724;28;20033;-84
2021/05/08 04:12:52;;;;;;;6.63;5.38;;;;;;;11.23;87.24;99433.28;5032989;28;20025;-84
2021/05/08 04:15:17;;;;;;;18.77;5.68;;;;;;;11.09;88.92;99418.72;5032932;28;20430;-84
2021/05/08 04:17:43;;;;;;;9.82;5.95;;;;;;;11.12;88.50;99417.63;5032978;28;20025;-84
2021/05/08 04:20:09;;;;;;;5.65;4.68;;;;;;;11.21;88.13;99408.13;5032847;28;20079;-84
2021/05/08 04:22:34;;;;;;;7.07;5.18;;;;;;;11.32;88.62;99405.41;5032653;28;20487;-85
2021/05/08 04:24:59;;;;;;;5.13;4.60;;;;;;;11.21;89.03;99392.34;5032849;28;20022;-85
2021/05/08 04:27:25;;;;;;;6.95;5.13;;;;;;;11.32;88.83;99369.44;5015002;28;20029;-85
2021/05/08 04:29:50;;;;;;;5.22;4.45;;;;;;;11.25;89.22;99372.72;5032705;28;20117;-85
2021/05/08 04:32:15;;;;;;;6.70;4.22;;;;;;;11.35;89.25;99360.44;5032676;28;20040;-85
2021/05/08 04:34:41;;;;;;;5.13;4.20;;;;;;;11.45;89.01;99363.09;5032505;28;20070;-85
2021/05/08 04:37:06;;;;;;;5.47;4.38;;;;;;;11.40;89.29;99349.53;5032573;28;20017;-84
2021/05/08 04:39:32;;;;;;;4.57;3.90;;;;;;;11.56;89.52;99354.28;5032165;28;20475;-84
2021/05/08 04:41:57;;;;;;;4.53;3.97;;;;;;;11.43;90.00;99329.06;5032675;28;20363;-84
2021/05/08 04:44:23;;;;;;;8.07;4.18;;;;;;;11.49;89.57;99323.28;5032525;28;20045;-84
2021/05/08 04:46:49;;;;;;;4.35;3.92;;;;;;;11.69;89.69;99325.91;5032243;28;20021;-84
2021/05/08 04:49:15;;;;;;;5.13;3.75;;;;;;;11.67;89.47;99333.94;5032636;28;20067;-85
2021/05/08 04:51:40;;;;;;;5.07;4.20;;;;;;;11.52;90.79;99327.41;5032143;28;20033;-85
2021/05/08 04:54:06;;;;;;;5.05;3.80;;;;;;;11.84;89.41;99324.50;5032230;28;20471;-84
2021/05/08 04:56:31;;;;;;;13.30;4.05;;;;;;;11.83;89.64;99320.25;5032239;28;20033;-85
2021/05/08 04:58:56;;;;;;;6.28;3.60;;;;;;;11.80;90.27;99315.25;5032245;28;20025;-85
2021/05/08 05:01:22;;;;;;;4.45;3.40;;;;;;;11.66;91.72;99318.28;5031913;28;20025;-84
2021/05/08 05:03:47;;;;;;;3.78;3.20;;;;;;;11.88;91.25;99318.00;5031984;28;20033;-84
2021/05/08 05:06:12;;;;;;;3.88;3.30;;;;;;;11.74;93.06;99300.03;5032099;28;20018;-84
2021/05/08 05:08:38;;;;;;;11.52;3.70;;;;;;;12.07;91.04;99279.53;5031755;28;20034;-84
2021/05/08 05:11:03;;;;;;;3.42;3.10;;;;;;;11.79;92.41;99261.00;5031690;28;20025;-84
2021/05/08 05:13:29;;;;;;;7.93;2.80;;;;;;;12.05;91.53;99276.22;5031949;28;20026;-84
2021/05/08 05:15:54;;;;;;;3.25;2.63;;;;;;;12.38;89.22;99272.28;5032106;28;20061;-84
2021/05/08 05:18:19;;;;;;;4.65;3.28;;;;;;;12.34;89.89;99254.25;5031964;28;20071;-84
2021/05/08 05:20:45;;;;;;;5.07;2.63;;;;;;;12.28;90.30;99238.09;5031909;28;20490;-84
2021/05/08 05:23:11;;;;;;;3.05;2.50;;;;;;;12.22;91.16;99236.03;5032027;28;20323;-84
2021/05/08 05:25:37;;;;;;;2.95;2.65;;;;;;;12.46;89.89;99232.03;5031922;28;20021;-84
2021/05/08 05:28:02;;;;;;;2.50;2.30;;;;;;;12.50;90.32;99228.16;5031778;28;20116;-84
2021/05/08 05:30:28;;;;;;;2.40;2.20;;;;;;;12.36;90.62;99208.41;5031847;28;20037;-85
2021/05/08 05:32:54;;;;;;;3.15;2.17;;;;;;;12.53;90.53;99227.84;5031737;28;20113;-85
2021/05/08 05:35:19;;;;;;;2.95;2.00;;;;;;;12.61;90.54;99220.06;5032056;28;20026;-85
2021/05/08 05:37:45;;;;;;;2.72;1.95;;;;;;;12.62;90.73;99207.75;5031848;28;20057;-84
2021/05/08 05:40:10;;;;;;;2.55;1.90;;;;;;;12.73;90.57;99201.44;5031327;28;20041;-85
2021/05/08 05:42:36;;;;;;;7.13;1.67;;;;;;;12.89;89.39;99201.59;5031378;28;20033;-84
2021/05/08 05:45:02;;;;;;;2.20;2.00;;;;;;;12.84;90.04;99191.50;5031669;28;20076;-85
2021/05/08 05:47:30;;;;;;;1.88;1.77;;;;;;;12.92;89.44;99196.03;5031647;28;20026;-84
2021/05/08 05:49:56;;;;;;;1.88;1.23;;;;;;;13.07;89.65;99189.28;5031684;28;20026;-84
2021/05/08 05:52:22;;;;;;;3.70;1.60;;;;;;;13.01;89.71;99184.63;5031518;28;20037;-85
2021/05/08 05:54:49;;;;;;;1.67;1.50;;;;;;;13.20;88.93;99188.06;5031496;28;20506;-84
2021/05/08 05:57:15;;;;;;;1.65;1.27;;;;;;;13.19;89.73;99181.97;5029994;28;20025;-84
2021/05/08 05:59:41;;;;;;;1.30;1.20;;;;;;;13.14;89.63;99163.16;5031213;28;20037;-85
2021/05/08 06:02:08;;;;;;;1.27;1.00;;;;;;;13.22;90.52;99165.03;5031403;28;20104;-85
2021/05/08 06:04:33;;;;;;;1.42;1.20;;;;;;;13.28;89.79;99159.16;5031167;28;20481;-85
2021/05/08 06:06:59;;;;;;;1.80;1.00;;;;;;;13.14;91.12;99151.78;5031494;28;20113;-84
2021/05/08 06:09:26;;;;;;;4.55;1.05;;;;;;;13.15;92.11;99163.97;5031378;28;20022;-84
2021/05/08 06:11:53;;;;;;;1.13;0.73;;;;;;;13.33;91.21;99146.38;5031357;28;20040;-84
2021/05/08 06:14:20;;;;;;;1.33;0.90;;;;;;;13.60;89.74;99140.13;5031509;28;20018;-84
2021/05/08 06:16:45;;;;;;;0.80;0.80;;;;;;;13.47;90.81;99137.91;5030406;28;20029;-84
2021/05/08 06:19:10;;;;;;;1.25;0.80;;;;;;;13.66;89.75;99143.97;5033371;28;20044;-84
2021/05/08 06:21:38;;;;;;;0.88;0.70;;;;;;;13.42;90.85;99132.25;5034974;28;20029;-84
2021/05/08 06:24:04;;;;;;;1.30;0.80;;;;;;;13.56;91.40;99146.69;5034673;28;20032;-85
2021/05/08 06:26:29;;;;;;;0.80;0.50;;;;;;;13.50;91.84;99134.13;5032777;28;20379;-84
2021/05/08 06:28:55;;;;;;;0.35;0.35;;;;;;;13.68;91.68;99128.81;5034746;28;20026;-84
2021/05/08 06:31:20;;;;;;;0.60;0.40;;;;;;;13.81;91.73;99118.66;5034343;28;20116;-84
2021/05/08 06:33:45;;;;;;;2.25;0.63;;;;;;;13.93;91.23;99107.84;5034685;28;20095;-84
2021/05/08 06:36:11;;;;;;;0.93;0.40;;;;;;;14.06;91.70;99116.97;5034413;28;20029;-84
2021/05/08 06:38:36;;;;;;;1.67;0.60;;;;;;;13.99;93.16;99109.84;5034884;28;20357;-85
2021/05/08 06:41:01;;;;;;;0.65;0.47;;;;;;;14.02;93.80;99114.81;5033557;28;20036;-84
2021/05/08 06:43:26;;;;;;;1.45;0.45;;;;;;;14.11;94.72;99113.03;5034611;28;20055;-85
2021/05/08 06:45:52;;;;;;;2.53;0.40;;;;;;;14.18;95.36;99104.34;5034125;28;20032;-85
2021/05/08 06:48:17;;;;;;;1.15;0.60;;;;;;;14.28;95.76;99094.47;5034223;28;20072;-85
2021/05/08 06:50:46;;;;;;;5.57;0.80;;;;;;;14.41;95.79;99093.16;5034635;28;20040;-85
2021/05/08 06:53:11;;;;;;;4.20;0.93;;;;;;;14.67;94.80;99093.09;5034285;28;20031;-84
2021/05/08 06:55:38;;;;;;;2.40;0.93;;;;;;;15.00;92.93;99093.13;5033546;28;20052;-85
2021/05/08 06:58:03;;;;;;;5.57;1.20;;;;;;;14.95;92.93;99095.44;5016134;28;20025;-85
2021/05/08 07:00:29;;;;;;;2.90;1.17;;;;;;;14.86;94.07;99091.97;5034104;28;20067;-85
2021/05/08 07:02:54;;;;;;;5.70;1.40;;;;;;;14.75;94.75;99105.50;5034457;28;20371;-85
2021/05/08 07:05:19;;;;;;;4.55;1.40;;;;;;;14.80;94.68;99098.72;5031089;28;20029;-84
2021/05/08 07:07:45;;;;;;;3.40;1.15;;;;;;;14.96;93.81;99097.91;5034136;28;20038;-85
2021/05/08 07:10:10;;;;;;;3.65;1.33;;;;;;;15.15;92.47;99103.88;5033204;28;20034;-85
2021/05/08 07:12:36;;;;;;;4.40;1.23;;;;;;;15.09;93.77;99092.16;5037929;28;20033;-85
2021/05/08 07:15:01;;;;;;;4.75;1.50;;;;;;;14.98;94.73;99095.13;5033726;28;20053;-85
2021/05/08 07:17:26;;;;;;;5.68;2.08;;;;;;;15.15;93.29;99090.66;5033434;28;20037;-85
2021/05/08 07:19:52;;;;;;;3.83;1.30;;;;;;;15.19;93.45;99102.56;5031392;28;20352;-85
2021/05/08 07:22:17;;;;;;;4.60;1.98;;;;;;;15.19;93.64;99086.69;5033657;28;20021;-85
2021/05/08 07:24:42;;;;;;;6.18;1.75;;;;;;;15.49;91.83;99097.56;5013091;28;20056;-85
2021/05/08 07:27:08;;;;;;;6.40;1.73;;;;;;;15.41;91.77;99088.66;5025393;28;20040;-85
2021/05/08 07:29:33;;;;;;;5.60;1.70;;;;;;;15.12;94.41;99080.41;5032956;28;20024;-84
2021/05/08 07:31:59;;;;;;;7.35;2.25;;;;;;;15.18;94.60;99088.50;5032998;28;20029;-85
2021/05/08 07:34:25;;;;;;;6.28;1.83;;;;;;;15.72;91.44;99085.28;5033759;28;20025;-85
2021/05/08 07:36:51;;;;;;;11.32;2.50;;;;;;;15.71;91.59;99074.88;5033554;28;20029;-85
2021/05/08 07:39:16;;;;;;;6.20;2.05;;;;;;;15.85;90.96;99077.63;5033633;28;20046;-85
2021/05/08 07:41:42;;;;;;;6.43;2.25;;;;;;;15.97;90.66;99080.75;5032824;28;20116;-85
2021/05/08 07:44:08;;;;;;;9.05;2.50;;;;;;;15.83;90.97;99063.75;5032112;28;20026;-85
2021/05/08 07:46:33;;;;;;;12.50;3.47;;;;;;;15.22;94.77;99051.97;5032430;28;20032;-85
2021/05/08 07:48:59;;;;;;;8.50;3.15;;;;;;;15.56;93.20;99059.69;5032979;28;20108;-85
2021/05/08 07:51:24;;;;;;;10.95;2.75;;;;;;;15.50;93.58;99059.53;5031580;28;20394;-85
2021/05/08 07:53:50;;;;;;;9.05;2.63;;;;;;;15.69;92.49;99067.09;5031686;28;20035;-85
2021/05/08 07:56:15;;;;;;;17.02;3.45;;;;;;;15.76;92.11;99070.75;5031551;28;20483;-85
2021/05/08 07:58:40;;;;;;;6.88;2.70;;;;;;;15.62;93.43;99080.19;5031879;28;20096;-85
2021/05/08 08:01:06;;;;;;;13.10;2.88;;;;;;;15.75;92.30;99078.84;5031084;28;20037;-85
2021/05/08 08:03:31;;;;;;;8.77;2.88;;;;;;;15.92;92.40;99074.34;5031399;28;20031;-84
2021/05/08 08:05:57;;;;;;;7.82;2.55;;;;;;;15.89;91.84;99085.25;5031552;28;20472;-85
2021/05/08 08:08:22;;;;;;;9.60;3.15;;;;;;;15.60;94.06;99068.09;5031218;28;20057;-85
2021/05/08 08:10:48;;;;;;;10.63;3.20;;;;;;;15.85;93.03;99077.63;5031236;28;20026;-85
2021/05/08 08:13:13;;;;;;;11.57;3.15;;;;;;;15.80;92.93;99082.63;5031008;28;20029;-85
2021/05/08 08:15:38;;;;;;;8.68;3.30;;;;;;;15.59;94.50;99066.47;5031330;28;20028;-85
2021/05/08 08:18:07;;;;;;;14.45;4.00;;;;;;;15.81;93.15;99073.69;5031107;28;20025;-84
2021/05/08 08:20:32;;;;;;;14.45;4.80;;;;;;;15.73;93.55;99081.66;5031349;28;20430;-85
2021/05/08 08:22:58;;;;;;;15.05;4.43;;;;;;;15.95;91.93;99079.28;5031969;28;20055;-84
2021/05/08 08:25:24;;;;;;;15.68;4.13;;;;;;;15.88;92.51;99070.34;5032484;28;20021;-85
2021/05/08 08:27:49;;;;;;;17.95;3.75;;;;;;;15.71;94.08;99078.31;5032355;28;20041;-85
2021/05/08 08:30:14;;;;;;;15.02;4.15;;;;;;;15.96;92.67;99087.06;5032690;28;20152;-85
2021/05/08 08:32:40;;;;;;;8.95;3.72;;;;;;;16.24;91.19;99070.72;5032507;28;20112;-85
2021/05/08 08:35:06;;;;;;;14.02;3.70;;;;;;;16.06;92.06;99058.53;5032268;28;20047;-85
2021/05/08 08:37:32;;;;;;;19.73;3.95;;;;;;;16.25;91.34;99061.75;5032661;28;20024;-85
2021/05/08 08:39:58;;;;;;;16.30;3.83;;;;;;;16.25;91.16;99061.75;5032708;28;20030;-85
2021/05/08 08:42:24;;;;;;;14.52;3.83;;;;;;;16.18;91.55;99060.81;5032149;28;20104;-85
2021/05/08 08:44:49;;;;;;;12.95;3.78;;;;;;;16.11;91.48;99058.00;5032687;28;20379;-85
2021/05/08 08:47:30;;;;;;;12.85;3.97;;;;;;;15.78;93.83;99060.81;5031845;28;20177;-85
2021/05/08 08:50:15;;;;;;;11.82;3.65;;;;;;;16.10;91.78;99053.72;5027269;28;20025;-84
2021/05/08 08:52:41;;;;;;;13.13;4.38;;;;;;;16.26;91.42;99053.63;5030825;28;20116;-88
2021/05/08 08:55:08;;;;;;;15.15;4.45;;;;;;;16.11;92.69;99060.66;5031722;28;20026;-88
2021/05/08 08:57:37;;;;;;;10.32;3.78;;;;;;;15.94;92.87;99049.34;5032860;28;20021;-88
2021/05/08 09:00:13;;;;;;;16.15;4.25;;;;;;;16.21;92.01;99055.16;5033489;28;20033;-88
2021/05/08 09:02:38;;;;;;;8.25;3.63;;;;;;;16.26;91.70;99061.59;5027919;28;20025;-88
2021/05/08 09:05:08;;;;;;;12.63;3.90;;;;;;;15.92;93.64;99056.63;5030833;28;20356;-88
2021/05/08 09:07:35;;;;;;;14.20;3.70;;;;;;;15.95;92.86;99060.75;5033831;28;20040;-87
2021/05/08 09:10:01;;;;;;;15.32;3.92;;;;;;;16.18;91.75;99060.81;5031078;28;20084;-87
2021/05/08 09:12:28;;;;;;;12.30;3.30;;;;;;;15.58;94.65;99059.50;5031118;28;20029;-88
2021/05/08 09:14:54;;;;;;;8.90;3.35;;;;;;;15.84;93.53;99059.31;5030405;28;20044;-89
2021/05/08 09:17:22;;;;;;;11.88;3.70;;;;;;;16.06;92.23;99058.53;5030987;28;20029;-88
2021/05/08 09:19:58;;;;;;;11.13;3.47;;;;;;;16.15;91.95;99059.34;5029037;28;20021;-87
2021/05/08 09:22:25;;;;;;;11.98;3.22;;;;;;;16.15;91.28;99045.25;5030582;28;20087;-88
2021/05/08 09:25:15;;;;;;;16.65;4.30;;;;;;;16.09;91.93;99044.13;5031028;28;20064;-88
2021/05/08 09:27:52;;;;;;;14.80;3.95;;;;;;;15.49;94.86;99057.88;5026664;28;20116;-89
2021/05/08 09:30:28;;;;;;;14.82;3.63;;;;;;;15.93;93.12;99062.75;5031371;28;20026;-89
2021/05/08 09:32:54;;;;;;;15.45;4.10;;;;;;;15.69;94.31;99059.16;5034768;28;20064;-87
2021/05/08 09:35:36;;;;;;;16.85;4.20;;;;;;;15.99;92.78;99059.41;5049811;28;20033;-87
2021/05/08 09:38:12;;;;;;;18.10;4.95;;;;;;;16.10;92.06;99042.31;5036995;28;20530;-88
2021/05/08 09:40:40;;;;;;;16.40;3.65;;;;;;;16.29;90.66;99051.63;5049880;28;20040;-88
2021/05/08 09:43:11;;;;;;;14.15;4.15;;;;;;;16.05;91.21;99048.97;5048409;28;20044;-88
2021/05/08 09:45:41;;;;;;;23.92;6.28;;;;;;;15.51;94.61;99037.38;5049676;28;20021;-88
2021/05/08 09:48:31;;;;;;;21.92;5.38;;;;;;;16.03;91.71;99047.47;5067834;28;20068;-88
2021/05/08 09:51:25;;;;;;;13.02;4.43;;;;;;;16.08;91.30;99055.72;5046258;28;20022;-88
2021/05/08 09:53:51;;;;;;;13.85;4.30;;;;;;;16.24;90.71;99044.22;5054089;28;20038;-87
2021/05/08 09:56:39;;;;;;;15.25;4.85;;;;;;;16.31;90.16;99036.41;5040198;28;20034;-88
2021/05/08 09:59:22;;;;;;;21.10;4.78;;;;;;;16.35;89.78;99061.53;5057865;28;20037;-88
2021/05/08 10:01:48;;;;;;;20.35;5.13;;;;;;;16.29;90.48;99030.44;5047514;28;20080;-89
2021/05/08 10:04:31;;;;;;;11.38;4.47;;;;;;;16.52;89.43;99044.53;5059008;28;20052;-89
2021/05/08 10:07:11;;;;;;;18.52;4.97;;;;;;;16.45;88.81;99033.03;5050674;28;20048;-87
2021/05/08 10:09:38;;;;;;;19.10;4.72;;;;;;;16.53;88.18;99038.25;5058818;28;20017;-87
2021/05/08 10:12:09;;;;;;;11.60;4.25;;;;;;;16.08;90.21;99050.44;5057317;28;20025;-86
2021/05/08 10:14:36;;;;;;;19.05;4.60;;;;;;;16.28;90.20;99034.13;5054808;28;20022;-85
2021/05/08 10:17:02;;;;;;;14.68;3.53;;;;;;;16.20;90.58;99038.44;5045617;28;20030;-84
2021/05/08 10:19:30;;;;;;;15.88;4.20;;;;;;;15.98;91.21;99044.53;5047016;28;20032;-85
2021/05/08 10:21:58;;;;;;;17.27;4.10;;;;;;;15.86;92.29;99057.31;5043018;28;20021;-84
2021/05/08 10:24:25;;;;;;;18.55;3.92;;;;;;;16.04;91.02;99057.88;5041684;28;20032;-85
2021/05/08 10:26:58;;;;;;;15.38;4.22;;;;;;;16.20;90.46;99054.34;5016638;28;20029;-85
2021/05/08 10:29:28;;;;;;;19.23;3.95;;;;;;;16.37;89.68;99064.84;5036892;28;20506;-84
2021/05/08 10:31:59;;;;;;;13.68;4.00;;;;;;;16.24;90.22;99057.47;5034060;28;20439;-84
2021/05/08 10:34:39;;;;;;;14.88;4.80;;;;;;;16.30;89.97;99069.19;5034561;28;20061;-85
2021/05/08 10:37:07;;;;;;;18.58;4.55;;;;;;;16.22;90.36;99070.88;5034849;28;20029;-85
2021/05/08 10:39:49;;;;;;;12.30;3.78;;;;;;;16.69;88.66;99060.34;5034451;28;20021;-85
2021/05/08 10:42:36;;;;;;;15.57;4.72;;;;;;;16.39;89.60;99053.09;5035436;28;20030;-86
2021/05/08 10:45:25;;;;;;;20.65;4.60;;;;;;;15.83;92.57;99069.06;5034754;28;20387;-85
2021/05/08 10:47:58;;;;;;;18.48;4.50;;;;;;;16.16;90.83;99073.41;5026654;28;20038;-85
2021/05/08 10:50:27;;;;;;;15.88;4.75;;;;;;;16.18;90.93;99072.22;5033201;28;20045;-86
2021/05/08 10:52:58;;;;;;;15.55;4.40;;;;;;;16.22;91.07;99070.88;5034031;28;20029;-85
2021/05/08 10:55:24;;;;;;;18.83;4.40;;;;;;;16.26;90.65;99082.78;5034158;28;20037;-84
2021/05/08 10:58:17;;;;;;;15.40;4.80;;;;;;;16.37;89.86;99067.47;5034965;28;20030;-86
2021/05/08 11:00:49;;;;;;;14.13;3.90;;;;;;;16.68;88.75;99079.88;5033370;28;20060;-86
2021/05/08 11:03:16;;;;;;;15.02;3.85;;;;;;;16.81;88.36;99061.56;5051376;28;20071;-85
2021/05/08 11:06:12;;;;;;;11.73;3.70;;;;;;;16.51;88.95;99055.31;5034707;28;20025;-84
2021/05/08 11:08:38;;;;;;;14.00;4.32;;;;;;;16.87;88.06;99062.72;5024606;28;20391;-85
2021/05/08 11:11:04;;;;;;;20.20;5.15;;;;;;;16.37;90.45;99068.31;5034437;28;20033;-85
2021/05/08 11:13:45;;;;;;;16.27;4.68;;;;;;;16.83;88.79;99064.91;5040589;28;20083;-85
2021/05/08 11:16:14;;;;;;;12.23;4.40;;;;;;;17.11;87.33;99067.81;5052675;28;20025;-85
2021/05/08 11:18:41;;;;;;;18.45;4.80;;;;;;;17.03;87.45;99066.06;5053488;28;20078;-85
2021/05/08 11:21:10;;;;;;;12.95;3.63;;;;;;;17.03;87.79;99052.78;5053349;28;20060;-85
2021/05/08 11:23:43;;;;;;;16.42;5.18;;;;;;;16.78;89.21;99064.56;5053902;28;20120;-86
2021/05/08 11:26:22;;;;;;;14.52;4.53;;;;;;;17.07;86.95;99071.84;5053237;28;20503;-86
2021/05/08 11:28:53;;;;;;;17.05;4.65;;;;;;;16.94;88.34;99080.41;5053682;28;20394;-85
2021/05/08 11:31:25;;;;;;;;;;;;;;;17.06;88.11;99067.53;5053966;28;20104;-86